Time;durP1;ratioP1;P1;durP2;ratioP2;P2;SDS_P1;SDS_P2;PMS_P1;PMS_P2;Temp;Humidity;BMP_temperature;BMP_pressure;BME280_temperature;BME280_humidity;BME280_pressure;Samples;Min_cycle;Max_cycle;Signal;HPM_P1;HPM_P2
2020/12/26 00:01:38;;;;;;;1.43;1.00;;;;;;;;;;10442275;28;20197;-72
2020/12/26 00:06:41;;;;;;;2.37;1.20;;;;;;;;;;10432897;28;20278;-70
2020/12/26 00:11:42;;;;;;;2.03;1.17;;;;;;;;;;10442411;28;20242;-71
2020/12/26 00:16:44;;;;;;;2.03;1.17;;;;;;;;;;10439355;28;20221;-71
2020/12/26 00:21:52;;;;;;;2.30;1.17;;;;;;;;;;10447687;28;20193;-71
2020/12/26 00:26:55;;;;;;;2.90;1.37;;;;;;;;;;10469035;28;20250;-72
2020/12/26 00:31:57;;;;;;;3.47;1.60;;;;;;;;;;10441478;28;20234;-70
2020/12/26 00:36:59;;;;;;;3.77;1.90;;;;;;;;;;10458117;28;20189;-71
2020/12/26 00:42:01;;;;;;;6.13;2.00;;;;;;;;;;10442878;28;20193;-69
2020/12/26 00:47:03;;;;;;;5.60;2.40;;;;;;;;;;10443319;28;20695;-69
2020/12/26 00:52:13;;;;;;;6.17;2.50;;;;;;;;;;10436067;28;20608;-68
2020/12/26 00:57:15;;;;;;;6.67;2.50;;;;;;;;;;10438170;28;20196;-71
2020/12/26 01:02:16;;;;;;;4.27;2.10;;;;;;;;;;10435662;28;20241;-68
2020/12/26 01:07:19;;;;;;;6.00;2.60;;;;;;;;;;10444931;28;20627;-71
2020/12/26 01:12:20;;;;;;;4.67;2.33;;;;;;;;;;10439092;28;20307;-71
2020/12/26 01:17:22;;;;;;;5.67;2.40;;;;;;;;;;10446153;28;20200;-70
2020/12/26 01:22:34;;;;;;;4.33;2.00;;;;;;;;;;10445855;28;20223;-71
2020/12/26 01:27:36;;;;;;;5.13;2.43;;;;;;;;;;10429124;28;20642;-70
2020/12/26 01:32:38;;;;;;;4.60;2.30;;;;;;;;;;10438580;28;20714;-71
2020/12/26 01:37:40;;;;;;;4.90;2.10;;;;;;;;;;10460629;28;20275;-70
2020/12/26 01:42:41;;;;;;;4.10;2.20;;;;;;;;;;10454179;28;20268;-70
2020/12/26 01:47:43;;;;;;;4.87;2.20;;;;;;;;;;10436644;28;20220;-70
2020/12/26 01:52:50;;;;;;;4.33;2.27;;;;;;;;;;10438153;28;20320;-71
2020/12/26 01:57:52;;;;;;;4.10;1.90;;;;;;;;;;10430585;28;20321;-71
2020/12/26 02:02:54;;;;;;;4.97;2.50;;;;;;;;;;10443019;28;20332;-68
2020/12/26 02:07:57;;;;;;;6.27;2.33;;;;;;;;;;10457083;28;20208;-69
2020/12/26 02:12:58;;;;;;;5.07;2.70;;;;;;;;;;10481610;28;20218;-67
2020/12/26 02:17:59;;;;;;;6.00;2.63;;;;;;;;;;10429591;28;20186;-69
2020/12/26 02:23:11;;;;;;;7.10;2.90;;;;;;;;;;10456680;28;20219;-71
2020/12/26 02:28:13;;;;;;;7.77;3.20;;;;;;;;;;10460295;28;20312;-70
2020/12/26 02:33:15;;;;;;;7.50;3.43;;;;;;;;;;10445080;28;20213;-69
2020/12/26 02:38:18;;;;;;;9.97;3.57;;;;;;;;;;10456731;28;20291;-70
2020/12/26 02:43:21;;;;;;;6.93;3.20;;;;;;;;;;10454455;28;20278;-71
2020/12/26 02:48:22;;;;;;;8.07;3.53;;;;;;;;;;10443033;28;20304;-69
2020/12/26 02:53:29;;;;;;;8.10;3.50;;;;;;;;;;10449921;28;20701;-69
2020/12/26 02:58:31;;;;;;;8.33;3.67;;;;;;;;;;10434962;28;20279;-69
2020/12/26 03:03:33;;;;;;;7.57;3.67;;;;;;;;;;10438795;28;20553;-71
2020/12/26 03:08:34;;;;;;;7.67;3.40;;;;;;;;;;10438948;28;20209;-68
2020/12/26 03:13:37;;;;;;;9.40;4.13;;;;;;;;;;10448173;28;20291;-69
2020/12/26 03:18:38;;;;;;;7.97;3.67;;;;;;;;;;10427050;28;20187;-72
2020/12/26 03:23:48;;;;;;;7.80;3.97;;;;;;;;;;10463537;28;20247;-71
2020/12/26 03:28:50;;;;;;;8.97;3.90;;;;;;;;;;10438351;28;20244;-72
2020/12/26 03:33:52;;;;;;;8.80;3.97;;;;;;;;;;10437578;28;20209;-71
2020/12/26 03:38:53;;;;;;;8.00;3.40;;;;;;;;;;10451235;28;20203;-72
2020/12/26 03:43:56;;;;;;;8.30;3.80;;;;;;;;;;10457455;28;20292;-70
2020/12/26 03:48:58;;;;;;;8.90;4.17;;;;;;;;;;10451514;28;20692;-71
2020/12/26 03:54:06;;;;;;;9.87;4.23;;;;;;;;;;10433959;28;20332;-71
2020/12/26 03:59:09;;;;;;;10.10;3.97;;;;;;;;;;10441967;28;20212;-72
2020/12/26 04:04:13;;;;;;;10.10;4.20;;;;;;;;;;10437184;28;20241;-72
2020/12/26 04:09:15;;;;;;;10.10;3.90;;;;;;;;;;10439457;28;20192;-72
2020/12/26 04:14:18;;;;;;;10.33;4.30;;;;;;;;;;10418196;28;20344;-71
2020/12/26 04:19:19;;;;;;;10.80;3.80;;;;;;;;;;10447641;28;20229;-70
2020/12/26 04:24:26;;;;;;;8.33;3.80;;;;;;;;;;10428804;28;20303;-71
2020/12/26 04:29:29;;;;;;;8.20;3.53;;;;;;;;;;10434923;28;20247;-71
2020/12/26 04:34:30;;;;;;;12.23;5.30;;;;;;;;;;10436789;28;20499;-70
2020/12/26 04:39:32;;;;;;;11.83;5.60;;;;;;;;;;10450678;28;20605;-69
2020/12/26 04:44:35;;;;;;;10.37;4.63;;;;;;;;;;10456075;28;20204;-71
2020/12/26 04:49:38;;;;;;;13.37;6.40;;;;;;;;;;10458628;28;20197;-68
2020/12/26 04:54:46;;;;;;;15.17;6.90;;;;;;;;;;10451048;28;20196;-71
2020/12/26 04:59:49;;;;;;;17.47;7.60;;;;;;;;;;10446989;28;20197;-71
2020/12/26 05:04:50;;;;;;;15.10;7.63;;;;;;;;;;10460913;28;20334;-71
2020/12/26 05:09:52;;;;;;;14.87;6.77;;;;;;;;;;10430390;28;20782;-70
2020/12/26 05:14:54;;;;;;;14.20;7.37;;;;;;;;;;10431320;28;20287;-71
2020/12/26 05:19:56;;;;;;;14.17;6.40;;;;;;;;;;10433682;28;20349;-71
2020/12/26 05:25:07;;;;;;;14.67;6.97;;;;;;;;;;10423173;28;20255;-71
2020/12/26 05:30:09;;;;;;;15.27;6.77;;;;;;;;;;10436011;28;20288;-69
2020/12/26 05:35:11;;;;;;;13.90;5.93;;;;;;;;;;10415130;28;20202;-70
2020/12/26 05:40:20;;;;;;;12.87;6.83;;;;;;;;;;10448784;28;20186;-70
2020/12/26 05:45:23;;;;;;;14.17;6.20;;;;;;;;;;10441648;28;20255;-71
2020/12/26 05:50:24;;;;;;;14.67;6.80;;;;;;;;;;10438568;28;20203;-71
2020/12/26 05:55:35;;;;;;;12.03;4.80;;;;;;;;;;10454829;28;20582;-70
2020/12/26 06:00:38;;;;;;;11.13;5.63;;;;;;;;;;10455169;28;20188;-70
2020/12/26 06:05:39;;;;;;;13.03;6.10;;;;;;;;;;10452425;28;20204;-70
2020/12/26 06:10:42;;;;;;;10.80;5.10;;;;;;;;;;10442070;28;20537;-71
2020/12/26 06:15:48;;;;;;;9.30;3.80;;;;;;;;;;10437086;28;20208;-70
2020/12/26 06:20:51;;;;;;;12.33;5.60;;;;;;;;;;10431304;28;20222;-70
2020/12/26 06:25:55;;;;;;;12.63;4.23;;;;;;;;;;10434731;28;20213;-69
2020/12/26 06:30:58;;;;;;;10.47;5.47;;;;;;;;;;10426354;28;20618;-70
2020/12/26 06:36:04;;;;;;;10.03;4.90;;;;;;;;;;10448978;28;20236;-71
2020/12/26 06:41:06;;;;;;;9.80;4.57;;;;;;;;;;10446867;28;20396;-70
2020/12/26 06:46:09;;;;;;;11.17;4.87;;;;;;;;;;10443600;28;20252;-71
2020/12/26 06:51:24;;;;;;;9.83;4.40;;;;;;;;;;10438286;28;20948;-71
2020/12/26 06:56:45;;;;;;;12.33;4.90;;;;;;;;;;10445960;28;20212;-69
2020/12/26 07:01:47;;;;;;;9.67;4.30;;;;;;;;;;10435586;28;20231;-68
2020/12/26 07:06:50;;;;;;;8.93;4.70;;;;;;;;;;10441709;28;20608;-71
2020/12/26 07:11:52;;;;;;;8.23;3.93;;;;;;;;;;10430793;28;20185;-67
2020/12/26 07:16:56;;;;;;;8.10;3.27;;;;;;;;;;10440720;28;20191;-71
2020/12/26 07:21:59;;;;;;;10.43;4.10;;;;;;;;;;10444946;28;20198;-68
2020/12/26 07:27:18;;;;;;;8.20;3.70;;;;;;;;;;10449450;28;20212;-71
2020/12/26 07:32:38;;;;;;;9.03;4.13;;;;;;;;;;10447216;28;20267;-71
2020/12/26 07:37:40;;;;;;;10.83;4.60;;;;;;;;;;10444138;28;20189;-69
2020/12/26 07:42:42;;;;;;;8.73;4.40;;;;;;;;;;10449364;28;20576;-71
2020/12/26 07:47:45;;;;;;;9.70;4.90;;;;;;;;;;10440787;28;20295;-69
2020/12/26 07:52:47;;;;;;;10.93;4.50;;;;;;;;;;10451114;28;20224;-71
2020/12/26 07:57:49;;;;;;;10.93;4.53;;;;;;;;;;10434906;28;20307;-70
2020/12/26 08:02:51;;;;;;;9.73;4.10;;;;;;;;;;10454807;28;20246;-70
2020/12/26 08:07:53;;;;;;;9.07;4.27;;;;;;;;;;10452444;28;20290;-72
2020/12/26 08:12:56;;;;;;;9.10;3.90;;;;;;;;;;10432715;28;20304;-69
2020/12/26 08:17:59;;;;;;;9.07;4.07;;;;;;;;;;10463997;28;20244;-71
2020/12/26 08:23:11;;;;;;;8.43;4.00;;;;;;;;;;10457615;28;20209;-70
2020/12/26 08:28:16;;;;;;;8.30;3.60;;;;;;;;;;10465050;28;20212;-68
2020/12/26 08:33:25;;;;;;;6.53;3.43;;;;;;;;;;10420937;28;20239;-71
2020/12/26 08:38:31;;;;;;;14.70;7.90;;;;;;;;;;10455774;28;20192;-70
2020/12/26 08:43:32;;;;;;;5.67;2.47;;;;;;;;;;10436424;28;20204;-69
2020/12/26 08:48:36;;;;;;;5.17;2.17;;;;;;;;;;10444672;28;20323;-70
2020/12/26 08:53:37;;;;;;;4.33;1.90;;;;;;;;;;10457175;28;20212;-69
2020/12/26 08:58:39;;;;;;;5.60;2.43;;;;;;;;;;10454553;28;20221;-71
2020/12/26 09:03:47;;;;;;;6.37;2.30;;;;;;;;;;10445918;28;20243;-70
2020/12/26 09:08:49;;;;;;;12.50;5.60;;;;;;;;;;10451075;28;20606;-70
2020/12/26 09:13:50;;;;;;;7.00;2.83;;;;;;;;;;10454298;28;20554;-72
2020/12/26 09:18:53;;;;;;;12.30;4.17;;;;;;;;;;10449274;28;20288;-71
2020/12/26 09:23:55;;;;;;;5.27;2.30;;;;;;;;;;10458469;28;20243;-71
2020/12/26 09:28:57;;;;;;;6.07;2.00;;;;;;;;;;10436030;28;20593;-71
2020/12/26 09:34:01;;;;;;;5.70;1.80;;;;;;;;;;10439109;28;20221;-70
2020/12/26 09:39:05;;;;;;;2.50;1.30;;;;;;;;;;10418634;28;20217;-70
2020/12/26 09:44:06;;;;;;;3.47;1.87;;;;;;;;;;10416540;28;20294;-72
2020/12/26 09:49:09;;;;;;;17.23;11.20;;;;;;;;;;10454718;28;20223;-69
2020/12/26 09:54:11;;;;;;;4.70;2.27;;;;;;;;;;10453839;28;20553;-71
2020/12/26 09:59:12;;;;;;;5.23;2.67;;;;;;;;;;10446036;28;20189;-70
2020/12/26 10:04:16;;;;;;;3.83;2.30;;;;;;;;;;10436271;28;20242;-72
2020/12/26 10:09:17;;;;;;;4.43;1.93;;;;;;;;;;10448388;28;20776;-71
2020/12/26 10:14:19;;;;;;;3.50;2.17;;;;;;;;;;10451857;28;20217;-72
2020/12/26 10:19:22;;;;;;;4.77;2.40;;;;;;;;;;10434500;28;20271;-72
2020/12/26 10:24:23;;;;;;;3.67;2.10;;;;;;;;;;10429678;28;20524;-71
2020/12/26 10:29:25;;;;;;;3.27;2.20;;;;;;;;;;10404712;28;20300;-70
2020/12/26 10:34:27;;;;;;;3.43;2.00;;;;;;;;;;10417020;28;20213;-70
2020/12/26 10:39:29;;;;;;;2.70;1.93;;;;;;;;;;10450496;28;20236;-69
2020/12/26 10:44:30;;;;;;;4.05;2.10;;;;;;;;;;10444196;28;20305;-70
2020/12/26 10:49:33;;;;;;;4.57;2.60;;;;;;;;;;10440624;28;20734;-70
2020/12/26 10:54:37;;;;;;;3.78;2.38;;;;;;;;;;10415377;28;20214;-71
2020/12/26 10:59:39;;;;;;;5.30;2.67;;;;;;;;;;10464346;28;20657;-71
2020/12/26 11:04:42;;;;;;;4.40;2.47;;;;;;;;;;10455303;28;20259;-72
2020/12/26 11:09:44;;;;;;;3.47;2.40;;;;;;;;;;10432728;28;20301;-71
2020/12/26 11:14:46;;;;;;;3.40;1.83;;;;;;;;;;10433400;28;20216;-71
2020/12/26 11:19:49;;;;;;;4.27;2.10;;;;;;;;;;10453376;28;20270;-71
2020/12/26 11:24:51;;;;;;;4.70;2.00;;;;;;;;;;10441455;28;20213;-71
2020/12/26 11:29:53;;;;;;;4.13;1.90;;;;;;;;;;10453802;28;20252;-71
2020/12/26 11:34:56;;;;;;;4.47;1.90;;;;;;;;;;10459139;28;20209;-68
2020/12/26 11:39:58;;;;;;;4.67;2.17;;;;;;;;;;10454012;28;20633;-70
2020/12/26 11:45:00;;;;;;;4.40;2.50;;;;;;;;;;10443118;28;20629;-71
2020/12/26 11:50:02;;;;;;;4.27;2.53;;;;;;;;;;10458171;28;20193;-71
2020/12/26 11:55:04;;;;;;;4.30;2.50;;;;;;;;;;10445925;28;20661;-70
2020/12/26 12:00:05;;;;;;;3.60;2.03;;;;;;;;;;10444986;28;20236;-71
2020/12/26 12:05:09;;;;;;;6.10;2.60;;;;;;;;;;10456573;28;20216;-70
2020/12/26 12:10:11;;;;;;;6.97;2.30;;;;;;;;;;10436011;28;20182;-71
2020/12/26 12:15:12;;;;;;;6.07;2.40;;;;;;;;;;10445946;28;20213;-72
2020/12/26 12:20:15;;;;;;;5.27;2.30;;;;;;;;;;10398136;28;20194;-70
2020/12/26 12:25:16;;;;;;;3.67;2.30;;;;;;;;;;10446766;28;20776;-73
2020/12/26 12:30:18;;;;;;;5.20;2.50;;;;;;;;;;10453723;28;20594;-71
2020/12/26 12:35:20;;;;;;;4.13;2.17;;;;;;;;;;10465195;28;20213;-73
2020/12/26 12:40:22;;;;;;;4.57;1.90;;;;;;;;;;10452635;28;20511;-71
2020/12/26 12:45:24;;;;;;;4.07;1.90;;;;;;;;;;10436357;28;20288;-73
2020/12/26 12:50:26;;;;;;;4.60;2.40;;;;;;;;;;10446596;28;20242;-72
2020/12/26 12:55:28;;;;;;;2.90;1.50;;;;;;;;;;10444968;28;20349;-73
2020/12/26 13:00:30;;;;;;;3.73;2.13;;;;;;;;;;10438588;28;20243;-72
2020/12/26 13:05:32;;;;;;;4.30;1.70;;;;;;;;;;10457394;28;20236;-73
2020/12/26 13:10:34;;;;;;;3.53;1.80;;;;;;;;;;10437954;28;20193;-73
2020/12/26 13:15:35;;;;;;;4.33;2.37;;;;;;;;;;10446450;28;20296;-74
2020/12/26 13:20:38;;;;;;;5.90;2.00;;;;;;;;;;10447041;28;20177;-73
2020/12/26 13:25:39;;;;;;;3.50;1.83;;;;;;;;;;10444198;28;20647;-73
2020/12/26 13:30:43;;;;;;;3.60;1.80;;;;;;;;;;10424825;28;20299;-72
2020/12/26 13:35:45;;;;;;;3.00;1.47;;;;;;;;;;10431214;28;20322;-73
2020/12/26 13:40:47;;;;;;;2.27;1.23;;;;;;;;;;10434607;28;20205;-73
2020/12/26 13:45:48;;;;;;;1.97;0.90;;;;;;;;;;10415852;28;20264;-73
2020/12/26 13:50:51;;;;;;;2.30;1.03;;;;;;;;;;10425406;28;20668;-73
2020/12/26 13:55:52;;;;;;;2.67;1.20;;;;;;;;;;10450820;28;20304;-73
2020/12/26 14:00:54;;;;;;;4.00;1.40;;;;;;;;;;10430161;28;20641;-71
2020/12/26 14:05:56;;;;;;;2.80;1.30;;;;;;;;;;10449841;28;20217;-72
2020/12/26 14:10:58;;;;;;;3.67;1.43;;;;;;;;;;10457360;28;20799;-72
2020/12/26 14:15:59;;;;;;;6.93;1.87;;;;;;;;;;10453045;28;20685;-72
2020/12/26 14:21:02;;;;;;;4.93;1.80;;;;;;;;;;10440180;28;20744;-73
2020/12/26 14:26:04;;;;;;;3.37;1.80;;;;;;;;;;10444652;28;20267;-72
2020/12/26 14:31:05;;;;;;;4.20;1.30;;;;;;;;;;10450760;28;20288;-73
2020/12/26 14:36:08;;;;;;;3.63;1.50;;;;;;;;;;10441528;28;20262;-73
2020/12/26 14:41:09;;;;;;;4.77;1.80;;;;;;;;;;10451075;28;20313;-74
2020/12/26 14:46:11;;;;;;;5.43;1.77;;;;;;;;;;10435735;28;20712;-73
2020/12/26 14:51:14;;;;;;;3.40;1.60;;;;;;;;;;10446629;28;20209;-73
2020/12/26 14:56:16;;;;;;;4.13;1.50;;;;;;;;;;10445515;28;20308;-73
2020/12/26 15:01:20;;;;;;;2.90;1.50;;;;;;;;;;10453052;28;20200;-73
2020/12/26 15:06:23;;;;;;;3.60;1.40;;;;;;;;;;10448904;28;20213;-73
2020/12/26 15:11:25;;;;;;;3.97;1.57;;;;;;;;;;10449925;28;20192;-73
2020/12/26 15:16:27;;;;;;;4.83;1.60;;;;;;;;;;10451251;28;20294;-73
2020/12/26 15:21:30;;;;;;;4.20;1.80;;;;;;;;;;10453052;28;20302;-72
2020/12/26 15:26:32;;;;;;;3.47;1.33;;;;;;;;;;10455294;28;20258;-74
2020/12/26 15:31:39;;;;;;;2.93;1.13;;;;;;;;;;10470507;28;20295;-74
2020/12/26 15:36:41;;;;;;;4.33;1.37;;;;;;;;;;10454745;28;20296;-73
2020/12/26 15:41:43;;;;;;;3.37;1.50;;;;;;;;;;10435795;28;20195;-73
2020/12/26 15:46:44;;;;;;;4.30;1.60;;;;;;;;;;10448582;28;20554;-73
2020/12/26 15:51:47;;;;;;;4.33;1.83;;;;;;;;;;10433274;28;20192;-73
2020/12/26 15:56:49;;;;;;;4.23;1.87;;;;;;;;;;10447711;28;20217;-73
2020/12/26 16:01:58;;;;;;;3.40;1.60;;;;;;;;;;10450361;28;20194;-72
2020/12/26 16:07:01;;;;;;;6.60;2.03;;;;;;;;;;10435900;28;20221;-71
2020/12/26 16:12:03;;;;;;;5.67;2.13;;;;;;;;;;10422495;28;20189;-72
2020/12/26 16:17:04;;;;;;;4.53;1.73;;;;;;;;;;10433941;28;20243;-72
2020/12/26 16:22:07;;;;;;;4.10;1.60;;;;;;;;;;10449456;28;20185;-71
2020/12/26 16:27:09;;;;;;;5.20;1.70;;;;;;;;;;10446789;28;20261;-72
2020/12/26 16:32:17;;;;;;;4.73;1.90;;;;;;;;;;10440612;28;20231;-73
2020/12/26 16:37:20;;;;;;;3.90;1.63;;;;;;;;;;10453352;28;20802;-73
2020/12/26 16:42:21;;;;;;;4.40;1.87;;;;;;;;;;10444929;28;20608;-73
2020/12/26 16:47:23;;;;;;;6.47;2.20;;;;;;;;;;10424143;28;20752;-73
2020/12/26 16:52:25;;;;;;;5.00;2.17;;;;;;;;;;10432648;28;20288;-73
2020/12/26 16:57:27;;;;;;;7.33;2.00;;;;;;;;;;10433353;28;20225;-72
2020/12/26 17:02:36;;;;;;;7.10;2.60;;;;;;;;;;10442519;28;20557;-74
2020/12/26 17:07:39;;;;;;;6.77;2.27;;;;;;;;;;10451118;28;20221;-74
2020/12/26 17:12:41;;;;;;;7.57;3.03;;;;;;;;;;10437153;28;20667;-73
2020/12/26 17:17:42;;;;;;;7.73;3.23;;;;;;;;;;10419922;28;20195;-74
2020/12/26 17:22:45;;;;;;;9.00;3.33;;;;;;;;;;10423964;28;20217;-73
2020/12/26 17:27:48;;;;;;;6.30;2.90;;;;;;;;;;10427693;28;20217;-74
2020/12/26 17:32:53;;;;;;;9.00;2.93;;;;;;;;;;10452456;28;20743;-73
2020/12/26 17:37:55;;;;;;;5.33;1.80;;;;;;;;;;10448621;28;20207;-73
2020/12/26 17:42:57;;;;;;;8.50;3.20;;;;;;;;;;10450047;28;20739;-74
2020/12/26 17:47:58;;;;;;;6.17;2.57;;;;;;;;;;10439843;28;20270;-73
2020/12/26 17:53:01;;;;;;;10.43;3.50;;;;;;;;;;10438336;28;20271;-73
2020/12/26 17:58:02;;;;;;;6.97;2.90;;;;;;;;;;10449386;28;20197;-73
2020/12/26 18:03:13;;;;;;;5.63;2.53;;;;;;;;;;10443167;28;20231;-73
2020/12/26 18:08:16;;;;;;;4.37;1.70;;;;;;;;;;10444998;28;20585;-72
2020/12/26 18:13:17;;;;;;;6.70;3.00;;;;;;;;;;10439868;28;20264;-72
2020/12/26 18:18:19;;;;;;;8.73;3.30;;;;;;;;;;10473662;28;20673;-73
2020/12/26 18:23:21;;;;;;;7.80;3.13;;;;;;;;;;10426167;28;20257;-73
2020/12/26 18:28:23;;;;;;;10.53;2.97;;;;;;;;;;10440946;28;20232;-73
2020/12/26 18:33:32;;;;;;;7.60;3.20;;;;;;;;;;10457804;28;20226;-73
2020/12/26 18:38:35;;;;;;;19.80;7.47;;;;;;;;;;10439077;28;20185;-73
2020/12/26 18:43:37;;;;;;;11.00;4.63;;;;;;;;;;10427331;28;20271;-73
2020/12/26 18:48:38;;;;;;;7.83;3.40;;;;;;;;;;10469867;28;20216;-73
2020/12/26 18:53:41;;;;;;;8.97;4.13;;;;;;;;;;10456197;28;20216;-73
2020/12/26 18:58:42;;;;;;;7.00;2.83;;;;;;;;;;10456322;28;20647;-72
2020/12/26 19:03:52;;;;;;;7.43;3.57;;;;;;;;;;10442893;28;20205;-73
2020/12/26 19:08:55;;;;;;;9.37;3.53;;;;;;;;;;10446440;28;20209;-72
2020/12/26 19:13:56;;;;;;;7.73;3.20;;;;;;;;;;10443388;28;20296;-75
2020/12/26 19:18:58;;;;;;;4.07;1.67;;;;;;;;;;10439412;28;20255;-74
2020/12/26 19:24:00;;;;;;;8.13;3.33;;;;;;;;;;10451275;28;20303;-75
2020/12/26 19:29:02;;;;;;;7.43;3.10;;;;;;;;;;10446863;28;20201;-74
2020/12/26 19:34:12;;;;;;;9.37;2.87;;;;;;;;;;10443861;28;20201;-74
2020/12/26 19:39:14;;;;;;;4.50;1.87;;;;;;;;;;10438981;28;20253;-74
2020/12/26 19:44:15;;;;;;;7.47;3.20;;;;;;;;;;10453213;28;20300;-72
2020/12/26 19:49:17;;;;;;;7.60;3.00;;;;;;;;;;10444801;28;20209;-73
2020/12/26 19:54:20;;;;;;;5.63;2.10;;;;;;;;;;10445077;28;20270;-73
2020/12/26 19:59:22;;;;;;;9.93;3.50;;;;;;;;;;10435818;28;20200;-72
2020/12/26 20:04:29;;;;;;;4.57;1.70;;;;;;;;;;10436403;28;20208;-70
2020/12/26 20:09:32;;;;;;;8.87;3.87;;;;;;;;;;10446785;28;20504;-72
2020/12/26 20:14:34;;;;;;;19.93;5.47;;;;;;;;;;10448184;28;20323;-73
2020/12/26 20:19:36;;;;;;;7.20;2.50;;;;;;;;;;10446744;28;20204;-72
2020/12/26 20:24:38;;;;;;;9.00;3.50;;;;;;;;;;10438104;28;20262;-73
2020/12/26 20:29:40;;;;;;;10.03;3.33;;;;;;;;;;10455174;28;20572;-72
2020/12/26 20:34:51;;;;;;;12.10;4.47;;;;;;;;;;10451992;28;20217;-73
2020/12/26 20:39:53;;;;;;;12.73;4.83;;;;;;;;;;10439769;28;20200;-72
2020/12/26 20:44:55;;;;;;;31.23;11.20;;;;;;;;;;10453183;28;20210;-74
2020/12/26 20:49:57;;;;;;;5.90;1.97;;;;;;;;;;10461107;28;20756;-72
2020/12/26 20:54:59;;;;;;;6.47;2.50;;;;;;;;;;10459423;28;20304;-73
2020/12/26 21:00:01;;;;;;;3.10;1.37;;;;;;;;;;10454151;28;20201;-72
2020/12/26 21:05:09;;;;;;;4.67;2.03;;;;;;;;;;10435460;28;20204;-73
2020/12/26 21:10:11;;;;;;;5.97;2.70;;;;;;;;;;10429461;28;20226;-73
2020/12/26 21:15:13;;;;;;;8.13;3.80;;;;;;;;;;10451619;28;20217;-73
2020/12/26 21:20:14;;;;;;;5.80;2.40;;;;;;;;;;10437238;28;20189;-73
2020/12/26 21:25:17;;;;;;;6.63;1.87;;;;;;;;;;10449013;28;20212;-73
2020/12/26 21:30:18;;;;;;;8.63;3.00;;;;;;;;;;10441066;28;21341;-73
2020/12/26 21:35:27;;;;;;;7.47;2.97;;;;;;;;;;10426793;28;20217;-74
2020/12/26 21:40:29;;;;;;;6.40;2.57;;;;;;;;;;10458461;28;20231;-73
2020/12/26 21:45:31;;;;;;;5.93;2.40;;;;;;;;;;10459519;28;20637;-72
2020/12/26 21:50:33;;;;;;;8.20;2.73;;;;;;;;;;10426178;28;20564;-73
2020/12/26 21:55:35;;;;;;;7.37;2.73;;;;;;;;;;10445226;28;20315;-74
2020/12/26 22:00:36;;;;;;;6.83;2.93;;;;;;;;;;10445635;28;20195;-73
2020/12/26 22:05:48;;;;;;;8.63;3.00;;;;;;;;;;10434958;28;20216;-73
2020/12/26 22:10:50;;;;;;;7.53;3.03;;;;;;;;;;10460970;28;20716;-73
2020/12/26 22:15:52;;;;;;;4.50;1.70;;;;;;;;;;10458431;28;20236;-73
2020/12/26 22:20:55;;;;;;;5.90;2.60;;;;;;;;;;10442876;28;20185;-73
2020/12/26 22:25:57;;;;;;;7.00;2.97;;;;;;;;;;10460870;28;20217;-74
2020/12/26 22:30:59;;;;;;;5.53;2.27;;;;;;;;;;10454522;28;20216;-73
2020/12/26 22:36:10;;;;;;;4.97;2.20;;;;;;;;;;10436506;28;20612;-73
2020/12/26 22:41:13;;;;;;;6.53;2.50;;;;;;;;;;10460810;28;20212;-73
2020/12/26 22:46:16;;;;;;;5.97;2.23;;;;;;;;;;10453645;28;20217;-73
2020/12/26 22:51:17;;;;;;;4.57;1.90;;;;;;;;;;10447953;28;20186;-73
2020/12/26 22:56:20;;;;;;;4.93;2.10;;;;;;;;;;10450595;28;20216;-73
2020/12/26 23:01:21;;;;;;;8.23;2.70;;;;;;;;;;10454148;28;20213;-70
2020/12/26 23:06:28;;;;;;;1.67;0.77;;;;;;;;;;10442404;28;20224;-73
2020/12/26 23:11:30;;;;;;;2.77;1.50;;;;;;;;;;10448384;28;20188;-73
2020/12/26 23:16:32;;;;;;;10.43;3.43;;;;;;;;;;10433160;28;20267;-73
2020/12/26 23:21:33;;;;;;;7.17;2.27;;;;;;;;;;10446640;28;20188;-73
2020/12/26 23:26:35;;;;;;;6.37;2.60;;;;;;;;;;10468499;28;20631;-73
2020/12/26 23:31:37;;;;;;;4.73;2.00;;;;;;;;;;10462937;28;20411;-74
2020/12/26 23:36:46;;;;;;;6.37;2.40;;;;;;;;;;10458557;28;20252;-73
2020/12/26 23:41:49;;;;;;;4.90;2.33;;;;;;;;;;10440572;28;20197;-74
2020/12/26 23:46:51;;;;;;;6.13;2.20;;;;;;;;;;10443691;28;20218;-73
2020/12/26 23:51:52;;;;;;;7.10;2.73;;;;;;;;;;10439530;28;20235;-73
2020/12/26 23:56:55;;;;;;;4.53;1.70;;;;;;;;;;10436849;28;20241;-73
